sensor_id;sensor_type;location;lat;lon;timestamp;pressure;altitude;pressure_sealevel;temperature;humidity
60489;BME280;46331;49.252;8.904;2023-01-25T00:00:32;101518.78;;;2.36;85.05
60489;BME280;46331;49.252;8.904;2023-01-25T00:01:13;101522.34;;;2.35;85.38
60489;BME280;46331;49.252;8.904;2023-01-25T00:01:54;101519.75;;;2.35;85.41
60489;BME280;46331;49.252;8.904;2023-01-25T00:02:34;101518.78;;;2.36;85.32
60489;BME280;46331;49.252;8.904;2023-01-25T00:03:15;101525.53;;;2.39;85.38
60489;BME280;46331;49.252;8.904;2023-01-25T00:03:57;101519.19;;;2.41;85.27
60489;BME280;46331;49.252;8.904;2023-01-25T00:04:37;101511.75;;;2.37;85.25
60489;BME280;46331;49.252;8.904;2023-01-25T00:05:18;101520.41;;;2.37;85.72
60489;BME280;46331;49.252;8.904;2023-01-25T00:05:59;101519.47;;;2.38;85.29
60489;BME280;46331;49.252;8.904;2023-01-25T00:06:40;101508.44;;;2.35;85.54
60489;BME280;46331;49.252;8.904;2023-01-25T00:07:22;101515.63;;;2.42;85.71
60489;BME280;46331;49.252;8.904;2023-01-25T00:08:03;101514.91;;;2.40;85.37
60489;BME280;46331;49.252;8.904;2023-01-25T00:08:48;101509.66;;;2.40;85.60
60489;BME280;46331;49.252;8.904;2023-01-25T00:09:29;101507.19;;;2.39;85.56
60489;BME280;46331;49.252;8.904;2023-01-25T00:10:09;101514.22;;;2.38;85.59
60489;BME280;46331;49.252;8.904;2023-01-25T00:10:50;101510.66;;;2.39;85.36
60489;BME280;46331;49.252;8.904;2023-01-25T00:11:31;101504.56;;;2.39;85.50
60489;BME280;46331;49.252;8.904;2023-01-25T00:12:11;101502.38;;;2.34;85.22
60489;BME280;46331;49.252;8.904;2023-01-25T00:12:52;101502.94;;;2.38;85.64
60489;BME280;46331;49.252;8.904;2023-01-25T00:13:32;101501.41;;;2.35;85.29
60489;BME280;46331;49.252;8.904;2023-01-25T00:14:14;101509.28;;;2.35;85.45
60489;BME280;46331;49.252;8.904;2023-01-25T00:14:54;101507.88;;;2.31;85.55
60489;BME280;46331;49.252;8.904;2023-01-25T00:15:35;101502.38;;;2.34;85.82
60489;BME280;46331;49.252;8.904;2023-01-25T00:16:16;101506.78;;;2.33;85.69
60489;BME280;46331;49.252;8.904;2023-01-25T00:16:56;101500.47;;;2.36;85.77
60489;BME280;46331;49.252;8.904;2023-01-25T00:17:37;101501.56;;;2.33;85.72
60489;BME280;46331;49.252;8.904;2023-01-25T00:18:17;101501.84;;;2.30;85.53
60489;BME280;46331;49.252;8.904;2023-01-25T00:18:58;101497.69;;;2.28;85.41
60489;BME280;46331;49.252;8.904;2023-01-25T00:19:38;101500.59;;;2.25;85.83
60489;BME280;46331;49.252;8.904;2023-01-25T00:20:19;101502.78;;;2.29;86.00
60489;BME280;46331;49.252;8.904;2023-01-25T00:21:10;101497.69;;;2.28;85.82
60489;BME280;46331;49.252;8.904;2023-01-25T00:21:51;101498.25;;;2.31;85.86
60489;BME280;46331;49.252;8.904;2023-01-25T00:22:32;101491.50;;;2.29;85.79
60489;BME280;46331;49.252;8.904;2023-01-25T00:23:12;101493.56;;;2.25;85.72
60489;BME280;46331;49.252;8.904;2023-01-25T00:23:53;101492.59;;;2.26;85.65
60489;BME280;46331;49.252;8.904;2023-01-25T00:24:33;101485.00;;;2.23;85.94
60489;BME280;46331;49.252;8.904;2023-01-25T00:25:14;101489.97;;;2.26;85.74
60489;BME280;46331;49.252;8.904;2023-01-25T00:25:58;101491.78;;;2.26;85.82
60489;BME280;46331;49.252;8.904;2023-01-25T00:26:39;101489.97;;;2.26;85.81
60489;BME280;46331;49.252;8.904;2023-01-25T00:27:22;101493.16;;;2.30;85.91
60489;BME280;46331;49.252;8.904;2023-01-25T00:28:03;101491.91;;;2.34;85.69
60489;BME280;46331;49.252;8.904;2023-01-25T00:28:50;101493.16;;;2.30;85.73
60489;BME280;46331;49.252;8.904;2023-01-25T00:29:31;101487.78;;;2.22;85.86
60489;BME280;46331;49.252;8.904;2023-01-25T00:30:11;101487.91;;;2.20;86.16
60489;BME280;46331;49.252;8.904;2023-01-25T00:30:52;101487.78;;;2.22;86.16
60489;BME280;46331;49.252;8.904;2023-01-25T00:32:46;101487.38;;;2.17;86.57
60489;BME280;46331;49.252;8.904;2023-01-25T00:35:10;101480.78;;;2.22;86.30
60489;BME280;46331;49.252;8.904;2023-01-25T00:35:55;101476.78;;;2.08;86.72
60489;BME280;46331;49.252;8.904;2023-01-25T00:38:27;101480.63;;;2.24;86.37
60489;BME280;46331;49.252;8.904;2023-01-25T00:39:12;101476.50;;;2.21;86.48
60489;BME280;46331;49.252;8.904;2023-01-25T00:39:52;101478.44;;;2.19;86.70
60489;BME280;46331;49.252;8.904;2023-01-25T00:40:33;101478.97;;;2.23;86.61
60489;BME280;46331;49.252;8.904;2023-01-25T00:41:14;101471.78;;;2.25;86.51
60489;BME280;46331;49.252;8.904;2023-01-25T00:41:54;101473.72;;;2.23;86.63
60489;BME280;46331;49.252;8.904;2023-01-25T00:42:35;101473.44;;;2.26;86.15
60489;BME280;46331;49.252;8.904;2023-01-25T00:43:15;101475.41;;;2.24;86.25
60489;BME280;46331;49.252;8.904;2023-01-25T00:43:56;101476.22;;;2.24;86.17
60489;BME280;46331;49.252;8.904;2023-01-25T00:44:37;101474.16;;;2.18;86.12
60489;BME280;46331;49.252;8.904;2023-01-25T00:45:18;101475.53;;;2.22;86.42
60489;BME280;46331;49.252;8.904;2023-01-25T00:46:00;101474.97;;;2.28;86.33
60489;BME280;46331;49.252;8.904;2023-01-25T00:46:40;101477.72;;;2.27;86.08
60489;BME280;46331;49.252;8.904;2023-01-25T00:47:21;101477.88;;;2.25;86.24
60489;BME280;46331;49.252;8.904;2023-01-25T00:48:02;101473.19;;;2.19;86.10
60489;BME280;46331;49.252;8.904;2023-01-25T00:48:43;101463.56;;;2.10;86.51
60489;BME280;46331;49.252;8.904;2023-01-25T00:49:27;101469.44;;;2.22;86.64
60489;BME280;46331;49.252;8.904;2023-01-25T00:50:10;101467.81;;;2.21;86.28
60489;BME280;46331;49.252;8.904;2023-01-25T00:50:53;101473.19;;;2.19;86.23
60489;BME280;46331;49.252;8.904;2023-01-25T00:51:33;101467.97;;;2.19;86.57
60489;BME280;46331;49.252;8.904;2023-01-25T00:52:14;101467.81;;;2.21;86.61
60489;BME280;46331;49.252;8.904;2023-01-25T00:52:55;101462.16;;;2.15;86.52
60489;BME280;46331;49.252;8.904;2023-01-25T00:53:36;101469.03;;;2.17;86.34
60489;BME280;46331;49.252;8.904;2023-01-25T00:54:17;101476.91;;;2.17;86.60
60489;BME280;46331;49.252;8.904;2023-01-25T00:54:58;101461.59;;;2.22;86.44
60489;BME280;46331;49.252;8.904;2023-01-25T00:55:39;101462.84;;;2.18;86.61
60489;BME280;46331;49.252;8.904;2023-01-25T00:56:19;101464.63;;;2.17;86.63
60489;BME280;46331;49.252;8.904;2023-01-25T00:57:00;101458.31;;;2.20;86.29
60489;BME280;46331;49.252;8.904;2023-01-25T00:57:41;101463.13;;;2.24;86.39
60489;BME280;46331;49.252;8.904;2023-01-25T00:58:21;101457.59;;;2.27;86.42
60489;BME280;46331;49.252;8.904;2023-01-25T00:59:02;101458.69;;;2.25;86.25
60489;BME280;46331;49.252;8.904;2023-01-25T00:59:42;101458.97;;;2.22;86.03
60489;BME280;46331;49.252;8.904;2023-01-25T01:00:23;101455.28;;;2.24;86.10
60489;BME280;46331;49.252;8.904;2023-01-25T01:01:04;101456.38;;;2.12;85.98
60489;BME280;46331;49.252;8.904;2023-01-25T01:01:45;101457.19;;;2.12;86.28
60489;BME280;46331;49.252;8.904;2023-01-25T01:02:25;101455.16;;;2.16;86.63
60489;BME280;46331;49.252;8.904;2023-01-25T01:03:07;101462.84;;;2.18;86.54
60489;BME280;46331;49.252;8.904;2023-01-25T01:03:47;101449.91;;;2.16;86.17
60489;BME280;46331;49.252;8.904;2023-01-25T01:04:29;101450.47;;;2.10;86.43
60489;BME280;46331;49.252;8.904;2023-01-25T01:05:09;101467.38;;;2.15;86.54
60489;BME280;46331;49.252;8.904;2023-01-25T01:06:11;101461.34;;;2.15;86.48
60489;BME280;46331;49.252;8.904;2023-01-25T01:06:52;101458.19;;;2.11;86.73
60489;BME280;46331;49.252;8.904;2023-01-25T01:07:34;101458.84;;;2.13;86.68
60489;BME280;46331;49.252;8.904;2023-01-25T01:08:14;101462.00;;;2.17;86.49
60489;BME280;46331;49.252;8.904;2023-01-25T01:08:55;101461.63;;;2.12;86.55
60489;BME280;46331;49.252;8.904;2023-01-25T01:09:35;101460.09;;;2.09;86.95
60489;BME280;46331;49.252;8.904;2023-01-25T01:10:16;101463.69;;;2.08;86.70
60489;BME280;46331;49.252;8.904;2023-01-25T01:10:58;101463.28;;;2.13;86.82
60489;BME280;46331;49.252;8.904;2023-01-25T01:11:39;101457.75;;;2.16;86.73
60489;BME280;46331;49.252;8.904;2023-01-25T01:12:20;101456.66;;;1.99;86.64
60489;BME280;46331;49.252;8.904;2023-01-25T01:13:01;101455.41;;;2.03;86.56
60489;BME280;46331;49.252;8.904;2023-01-25T01:13:41;101456.38;;;1.92;86.95
60489;BME280;46331;49.252;8.904;2023-01-25T01:14:22;101455.41;;;2.03;86.88
60489;BME280;46331;49.252;8.904;2023-01-25T01:15:04;101463.41;;;2.02;86.95
60489;BME280;46331;49.252;8.904;2023-01-25T01:15:47;101461.34;;;2.05;87.04
60489;BME280;46331;49.252;8.904;2023-01-25T01:16:27;101459.97;;;2.01;86.64
60489;BME280;46331;49.252;8.904;2023-01-25T01:17:08;101461.63;;;2.12;86.86
60489;BME280;46331;49.252;8.904;2023-01-25T01:17:48;101466.84;;;2.12;86.73
60489;BME280;46331;49.252;8.904;2023-01-25T01:18:33;101461.88;;;2.09;86.81
60489;BME280;46331;49.252;8.904;2023-01-25T01:19:15;101460.09;;;2.09;87.26
60489;BME280;46331;49.252;8.904;2023-01-25T01:19:55;101459.13;;;2.10;86.79
60489;BME280;46331;49.252;8.904;2023-01-25T01:20:37;101460.38;;;2.06;86.84
60489;BME280;46331;49.252;8.904;2023-01-25T01:21:17;101461.88;;;2.09;86.93
60489;BME280;46331;49.252;8.904;2023-01-25T01:21:58;101462.56;;;2.11;86.76
60489;BME280;46331;49.252;8.904;2023-01-25T01:22:38;101463.13;;;2.14;86.87
60489;BME280;46331;49.252;8.904;2023-01-25T01:23:19;101460.53;;;2.14;86.78
60489;BME280;46331;49.252;8.904;2023-01-25T01:24:00;101474.56;;;2.13;86.96
60489;BME280;46331;49.252;8.904;2023-01-25T01:24:40;101463.00;;;2.16;86.60
60489;BME280;46331;49.252;8.904;2023-01-25T01:25:22;101471.66;;;2.17;86.94
60489;BME280;46331;49.252;8.904;2023-01-25T01:26:04;101467.38;;;2.15;86.81
60489;BME280;46331;49.252;8.904;2023-01-25T01:26:46;101468.91;;;2.18;87.00
60489;BME280;46331;49.252;8.904;2023-01-25T01:27:26;101472.06;;;2.22;86.83
60489;BME280;46331;49.252;8.904;2023-01-25T01:28:07;101469.16;;;2.25;86.66
60489;BME280;46331;49.252;8.904;2023-01-25T01:28:48;101469.16;;;2.25;86.44
60489;BME280;46331;49.252;8.904;2023-01-25T01:29:29;101470.16;;;2.24;86.59
60489;BME280;46331;49.252;8.904;2023-01-25T01:30:10;101468.50;;;2.23;86.20
60489;BME280;46331;49.252;8.904;2023-01-25T01:30:51;101465.34;;;2.19;86.17
60489;BME280;46331;49.252;8.904;2023-01-25T01:31:32;101470.16;;;2.24;86.86
60489;BME280;46331;49.252;8.904;2023-01-25T01:32:33;101472.06;;;2.22;86.36
60489;BME280;46331;49.252;8.904;2023-01-25T01:33:13;101474.97;;;2.19;86.25
60489;BME280;46331;49.252;8.904;2023-01-25T01:33:55;101460.91;;;2.20;86.46
60489;BME280;46331;49.252;8.904;2023-01-25T01:34:37;101467.97;;;2.19;86.56
60489;BME280;46331;49.252;8.904;2023-01-25T01:35:18;101466.84;;;2.22;86.52
60489;BME280;46331;49.252;8.904;2023-01-25T01:35:58;101473.19;;;2.19;86.48
60489;BME280;46331;49.252;8.904;2023-01-25T01:36:45;101476.50;;;2.11;86.53
60489;BME280;46331;49.252;8.904;2023-01-25T01:37:26;101466.72;;;2.04;87.12
60489;BME280;46331;49.252;8.904;2023-01-25T01:38:06;101474.56;;;2.04;87.21
60489;BME280;46331;49.252;8.904;2023-01-25T01:38:48;101473.44;;;2.06;87.36
60489;BME280;46331;49.252;8.904;2023-01-25T01:39:28;101473.31;;;2.08;87.09
60489;BME280;46331;49.252;8.904;2023-01-25T01:40:13;101476.78;;;2.08;87.29
60489;BME280;46331;49.252;8.904;2023-01-25T01:40:54;101474.28;;;2.07;86.90
60489;BME280;46331;49.252;8.904;2023-01-25T01:41:35;101473.44;;;2.06;86.87
60489;BME280;46331;49.252;8.904;2023-01-25T01:42:16;101471.13;;;2.13;87.48
60489;BME280;46331;49.252;8.904;2023-01-25T01:43:01;101475.25;;;2.15;86.93
60489;BME280;46331;49.252;8.904;2023-01-25T01:43:43;101476.91;;;2.17;87.10
60489;BME280;46331;49.252;8.904;2023-01-25T01:44:46;101474.28;;;2.17;87.06
60489;BME280;46331;49.252;8.904;2023-01-25T01:46:28;101473.88;;;2.11;87.08
60489;BME280;46331;49.252;8.904;2023-01-25T01:48:24;101476.91;;;2.17;87.23
60489;BME280;46331;49.252;8.904;2023-01-25T01:50:16;101462.00;;;2.17;87.73
60489;BME280;46331;49.252;8.904;2023-01-25T01:51:02;101473.47;;;2.16;87.22
60489;BME280;46331;49.252;8.904;2023-01-25T01:53:00;101473.59;;;2.14;87.13
60489;BME280;46331;49.252;8.904;2023-01-25T01:53:45;101476.50;;;2.21;87.53
60489;BME280;46331;49.252;8.904;2023-01-25T01:54:33;101473.19;;;2.19;87.01
60489;BME280;46331;49.252;8.904;2023-01-25T01:55:19;101474.16;;;2.18;86.95
60489;BME280;46331;49.252;8.904;2023-01-25T01:56:06;101469.88;;;2.17;87.48
60489;BME280;46331;49.252;8.904;2023-01-25T01:57:09;101472.34;;;2.19;86.76
60489;BME280;46331;49.252;8.904;2023-01-25T01:57:55;101470.41;;;2.11;86.81
60489;BME280;46331;49.252;8.904;2023-01-25T01:58:38;101471.00;;;2.14;87.13
60489;BME280;46331;49.252;8.904;2023-01-25T01:59:23;101473.31;;;2.18;87.34
60489;BME280;46331;49.252;8.904;2023-01-25T02:00:15;101468.38;;;2.14;87.20
60489;BME280;46331;49.252;8.904;2023-01-25T02:00:59;101470.69;;;2.08;87.34
60489;BME280;46331;49.252;8.904;2023-01-25T02:01:40;101465.19;;;2.11;87.34
60489;BME280;46331;49.252;8.904;2023-01-25T02:02:22;101467.81;;;2.11;87.10
60489;BME280;46331;49.252;8.904;2023-01-25T02:03:05;101471.81;;;2.15;87.28
60489;BME280;46331;49.252;8.904;2023-01-25T02:03:46;101463.56;;;2.10;87.20
60489;BME280;46331;49.252;8.904;2023-01-25T02:04:27;101469.75;;;2.09;86.79
60489;BME280;46331;49.252;8.904;2023-01-25T02:05:16;101475.66;;;2.11;87.26
60489;BME280;46331;49.252;8.904;2023-01-25T02:06:06;101467.38;;;2.15;87.26
60489;BME280;46331;49.252;8.904;2023-01-25T02:07:35;101466.28;;;2.18;87.36
60489;BME280;46331;49.252;8.904;2023-01-25T02:08:17;101474.81;;;2.20;86.99
60489;BME280;46331;49.252;8.904;2023-01-25T02:08:59;101467.69;;;2.22;87.47
60489;BME280;46331;49.252;8.904;2023-01-25T02:09:40;101466.00;;;2.21;87.26
60489;BME280;46331;49.252;8.904;2023-01-25T02:10:23;101471.94;;;2.23;87.32
60489;BME280;46331;49.252;8.904;2023-01-25T02:11:06;101472.06;;;2.22;86.96
60489;BME280;46331;49.252;8.904;2023-01-25T02:11:49;101466.69;;;2.23;87.13
60489;BME280;46331;49.252;8.904;2023-01-25T02:12:30;101466.56;;;2.15;86.52
60489;BME280;46331;49.252;8.904;2023-01-25T02:13:11;101472.63;;;2.25;86.73
60489;BME280;46331;49.252;8.904;2023-01-25T02:13:53;101470.97;;;2.24;86.23
60489;BME280;46331;49.252;8.904;2023-01-25T02:14:36;101465.06;;;2.22;86.55
60489;BME280;46331;49.252;8.904;2023-01-25T02:15:18;101473.31;;;2.18;86.21
60489;BME280;46331;49.252;8.904;2023-01-25T02:15:59;101472.22;;;2.20;86.66
60489;BME280;46331;49.252;8.904;2023-01-25T02:16:40;101469.31;;;2.23;86.60
60489;BME280;46331;49.252;8.904;2023-01-25T02:17:31;101468.63;;;2.21;86.48
60489;BME280;46331;49.252;8.904;2023-01-25T02:18:13;101465.63;;;2.16;86.84
60489;BME280;46331;49.252;8.904;2023-01-25T02:18:57;101469.59;;;2.10;86.82
60489;BME280;46331;49.252;8.904;2023-01-25T02:21:11;101466.56;;;2.15;86.82
60489;BME280;46331;49.252;8.904;2023-01-25T02:21:53;101460.66;;;2.23;87.34
60489;BME280;46331;49.252;8.904;2023-01-25T02:24:11;101468.50;;;2.23;86.71
60489;BME280;46331;49.252;8.904;2023-01-25T02:25:10;101462.69;;;2.29;87.00
60489;BME280;46331;49.252;8.904;2023-01-25T02:25:54;101465.59;;;2.26;86.60
60489;BME280;46331;49.252;8.904;2023-01-25T02:26:39;101457.22;;;2.22;86.70
60489;BME280;46331;49.252;8.904;2023-01-25T02:27:20;101450.56;;;2.28;87.26
60489;BME280;46331;49.252;8.904;2023-01-25T02:28:03;101459.13;;;2.30;87.17
60489;BME280;46331;49.252;8.904;2023-01-25T02:28:58;101454.84;;;2.29;87.09
60489;BME280;46331;49.252;8.904;2023-01-25T02:29:42;101453.03;;;2.29;87.29
60489;BME280;46331;49.252;8.904;2023-01-25T02:30:23;101457.88;;;2.34;87.49
60489;BME280;46331;49.252;8.904;2023-01-25T02:31:05;101451.00;;;2.33;87.11
60489;BME280;46331;49.252;8.904;2023-01-25T02:31:45;101455.94;;;2.36;86.83
60489;BME280;46331;49.252;8.904;2023-01-25T02:32:26;101451.94;;;2.32;86.78
60489;BME280;46331;49.252;8.904;2023-01-25T02:33:07;101448.38;;;2.33;86.63
60489;BME280;46331;49.252;8.904;2023-01-25T02:33:49;101456.63;;;2.38;86.70
60489;BME280;46331;49.252;8.904;2023-01-25T02:34:29;101449.19;;;2.33;86.38
60489;BME280;46331;49.252;8.904;2023-01-25T02:35:22;101447.38;;;2.34;87.05
60489;BME280;46331;49.252;8.904;2023-01-25T02:36:46;101450.00;;;2.34;86.83
60489;BME280;46331;49.252;8.904;2023-01-25T02:37:27;101450.56;;;2.38;86.75
60489;BME280;46331;49.252;8.904;2023-01-25T02:38:11;101455.81;;;2.38;86.36
60489;BME280;46331;49.252;8.904;2023-01-25T02:38:56;101449.16;;;2.43;86.71
60489;BME280;46331;49.252;8.904;2023-01-25T02:39:40;101450.00;;;2.34;86.83
60489;BME280;46331;49.252;8.904;2023-01-25T02:40:20;101451.13;;;2.31;86.48
60489;BME280;46331;49.252;8.904;2023-01-25T02:41:05;101450.84;;;2.35;86.39
60489;BME280;46331;49.252;8.904;2023-01-25T02:41:46;101446.16;;;2.38;86.86
60489;BME280;46331;49.252;8.904;2023-01-25T02:42:30;101451.53;;;2.37;86.80
60489;BME280;46331;49.252;8.904;2023-01-25T02:43:13;101446.44;;;2.35;86.62
60489;BME280;46331;49.252;8.904;2023-01-25T02:43:54;101447.13;;;2.37;86.44
60489;BME280;46331;49.252;8.904;2023-01-25T02:44:34;101450.84;;;2.35;86.57
60489;BME280;46331;49.252;8.904;2023-01-25T02:45:17;101444.34;;;2.39;86.18
60489;BME280;46331;49.252;8.904;2023-01-25T02:46:07;101443.69;;;2.37;86.29
60489;BME280;46331;49.252;8.904;2023-01-25T02:46:51;101444.78;;;2.34;85.92
60489;BME280;46331;49.252;8.904;2023-01-25T02:47:32;101451.25;;;2.40;86.31
60489;BME280;46331;49.252;8.904;2023-01-25T02:48:13;101440.63;;;2.41;86.33
60489;BME280;46331;49.252;8.904;2023-01-25T02:48:54;101446.16;;;2.38;86.26
60489;BME280;46331;49.252;8.904;2023-01-25T02:49:36;101455.81;;;2.38;86.23
60489;BME280;46331;49.252;8.904;2023-01-25T02:50:17;101450.16;;;2.32;86.10
60489;BME280;46331;49.252;8.904;2023-01-25T02:50:57;101440.38;;;2.35;86.03
60489;BME280;46331;49.252;8.904;2023-01-25T02:51:41;101453.06;;;2.39;86.13
60489;BME280;46331;49.252;8.904;2023-01-25T02:52:22;101447.38;;;2.34;85.83
60489;BME280;46331;49.252;8.904;2023-01-25T02:53:03;101449.34;;;2.32;85.88
60489;BME280;46331;49.252;8.904;2023-01-25T02:53:43;101448.66;;;2.30;86.63
60489;BME280;46331;49.252;8.904;2023-01-25T02:54:24;101451.81;;;2.33;86.62
60489;BME280;46331;49.252;8.904;2023-01-25T02:55:08;101447.94;;;2.28;86.39
60489;BME280;46331;49.252;8.904;2023-01-25T02:55:49;101444.63;;;2.36;86.52
60489;BME280;46331;49.252;8.904;2023-01-25T02:56:29;101453.34;;;2.36;85.92
60489;BME280;46331;49.252;8.904;2023-01-25T02:57:10;101451.00;;;2.33;86.03
60489;BME280;46331;49.252;8.904;2023-01-25T02:57:56;101447.00;;;2.29;86.29
60489;BME280;46331;49.252;8.904;2023-01-25T02:58:37;101453.47;;;2.35;86.48
60489;BME280;46331;49.252;8.904;2023-01-25T02:59:17;101452.50;;;2.36;86.21
60489;BME280;46331;49.252;8.904;2023-01-25T03:00:03;101454.00;;;2.38;86.46
60489;BME280;46331;49.252;8.904;2023-01-25T03:00:45;101449.44;;;2.40;86.45
60489;BME280;46331;49.252;8.904;2023-01-25T03:01:26;101450.16;;;2.42;86.28
60489;BME280;46331;49.252;8.904;2023-01-25T03:02:06;101447.53;;;2.42;86.14
60489;BME280;46331;49.252;8.904;2023-01-25T03:02:47;101457.03;;;2.43;85.96
60489;BME280;46331;49.252;8.904;2023-01-25T03:03:28;101452.78;;;2.42;86.25
60489;BME280;46331;49.252;8.904;2023-01-25T03:04:08;101447.00;;;2.29;86.14
60489;BME280;46331;49.252;8.904;2023-01-25T03:04:49;101455.53;;;2.31;86.13
60489;BME280;46331;49.252;8.904;2023-01-25T03:05:31;101455.13;;;2.26;86.56
60489;BME280;46331;49.252;8.904;2023-01-25T03:06:12;101455.13;;;2.26;86.61
60489;BME280;46331;49.252;8.904;2023-01-25T03:06:55;101455.66;;;2.29;86.65
60489;BME280;46331;49.252;8.904;2023-01-25T03:07:36;101446.88;;;2.21;86.47
60489;BME280;46331;49.252;8.904;2023-01-25T03:08:17;101450.31;;;2.21;86.37
60489;BME280;46331;49.252;8.904;2023-01-25T03:09:00;101441.78;;;2.19;86.72
60489;BME280;46331;49.252;8.904;2023-01-25T03:09:41;101451.13;;;2.22;86.58
60489;BME280;46331;49.252;8.904;2023-01-25T03:10:22;101454.72;;;2.21;86.46
60489;BME280;46331;49.252;8.904;2023-01-25T03:11:06;101451.00;;;2.23;86.95
60489;BME280;46331;49.252;8.904;2023-01-25T03:11:49;101439.31;;;2.18;86.95
60489;BME280;46331;49.252;8.904;2023-01-25T03:12:30;101451.69;;;2.15;87.06
60489;BME280;46331;49.252;8.904;2023-01-25T03:13:11;101440.53;;;2.13;86.84
60489;BME280;46331;49.252;8.904;2023-01-25T03:13:52;101452.13;;;2.21;86.91
60489;BME280;46331;49.252;8.904;2023-01-25T03:14:33;101447.69;;;2.21;86.77
60489;BME280;46331;49.252;8.904;2023-01-25T03:15:14;101444.94;;;2.23;87.04
60489;BME280;46331;49.252;8.904;2023-01-25T03:16:04;101438.31;;;2.19;86.30
60489;BME280;46331;49.252;8.904;2023-01-25T03:16:44;101443.69;;;2.17;86.74
60489;BME280;46331;49.252;8.904;2023-01-25T03:17:25;101446.44;;;2.15;86.67
60489;BME280;46331;49.252;8.904;2023-01-25T03:18:06;101444.25;;;2.21;86.83
60489;BME280;46331;49.252;8.904;2023-01-25T03:18:46;101440.66;;;2.22;87.00
60489;BME280;46331;49.252;8.904;2023-01-25T03:19:27;101435.97;;;2.15;86.53
60489;BME280;46331;49.252;8.904;2023-01-25T03:20:08;101440.94;;;2.09;86.97
60489;BME280;46331;49.252;8.904;2023-01-25T03:20:49;101438.75;;;2.24;87.57
60489;BME280;46331;49.252;8.904;2023-01-25T03:21:29;101432.66;;;2.23;87.15
60489;BME280;46331;49.252;8.904;2023-01-25T03:22:10;101428.13;;;2.15;86.90
60489;BME280;46331;49.252;8.904;2023-01-25T03:22:51;101433.09;;;2.19;86.98
60489;BME280;46331;49.252;8.904;2023-01-25T03:23:32;101430.31;;;2.20;87.23
60489;BME280;46331;49.252;8.904;2023-01-25T03:24:13;101426.91;;;2.20;87.13
60489;BME280;46331;49.252;8.904;2023-01-25T03:24:58;101430.22;;;2.12;87.55
60489;BME280;46331;49.252;8.904;2023-01-25T03:25:39;101430.59;;;2.17;87.25
60489;BME280;46331;49.252;8.904;2023-01-25T03:26:26;101426.22;;;2.18;87.64
60489;BME280;46331;49.252;8.904;2023-01-25T03:27:29;101422.22;;;2.13;87.41
60489;BME280;46331;49.252;8.904;2023-01-25T03:28:20;101428.84;;;2.18;87.24
60489;BME280;46331;49.252;8.904;2023-01-25T03:29:01;101429.94;;;2.15;87.14
60489;BME280;46331;49.252;8.904;2023-01-25T03:29:42;101428.53;;;2.11;86.93
60489;BME280;46331;49.252;8.904;2023-01-25T03:30:27;101423.88;;;2.14;87.53
60489;BME280;46331;49.252;8.904;2023-01-25T03:31:11;101427.88;;;2.09;87.46
60489;BME280;46331;49.252;8.904;2023-01-25T03:31:52;101432.97;;;2.10;87.14
60489;BME280;46331;49.252;8.904;2023-01-25T03:32:32;101425.94;;;2.01;86.88
60489;BME280;46331;49.252;8.904;2023-01-25T03:33:18;101429.53;;;2.00;86.99
60489;BME280;46331;49.252;8.904;2023-01-25T03:33:59;101423.59;;;1.98;87.74
60489;BME280;46331;49.252;8.904;2023-01-25T03:34:44;101426.63;;;2.03;87.43
60489;BME280;46331;49.252;8.904;2023-01-25T03:35:25;101429.09;;;2.05;87.22
60489;BME280;46331;49.252;8.904;2023-01-25T03:36:07;101425.81;;;2.03;87.65
60489;BME280;46331;49.252;8.904;2023-01-25T03:36:48;101431.03;;;2.03;87.76
60489;BME280;46331;49.252;8.904;2023-01-25T03:37:28;101427.34;;;2.05;87.88
60489;BME280;46331;49.252;8.904;2023-01-25T03:38:11;101435.31;;;2.04;87.79
60489;BME280;46331;49.252;8.904;2023-01-25T03:38:51;101427.47;;;2.04;88.06
60489;BME280;46331;49.252;8.904;2023-01-25T03:39:32;101431.56;;;2.06;87.72
60489;BME280;46331;49.252;8.904;2023-01-25T03:40:12;101426.75;;;2.02;87.62
60489;BME280;46331;49.252;8.904;2023-01-25T03:40:57;101439.97;;;2.00;87.27
60489;BME280;46331;49.252;8.904;2023-01-25T03:41:38;101434.34;;;2.05;88.00
60489;BME280;46331;49.252;8.904;2023-01-25T03:42:22;101434.19;;;2.06;87.80
60489;BME280;46331;49.252;8.904;2023-01-25T03:43:07;101427.75;;;2.01;87.21
60489;BME280;46331;49.252;8.904;2023-01-25T03:43:48;101426.63;;;2.03;87.83
60489;BME280;46331;49.252;8.904;2023-01-25T03:44:31;101431.03;;;2.03;87.62
60489;BME280;46331;49.252;8.904;2023-01-25T03:45:12;101430.09;;;2.04;87.56
60489;BME280;46331;49.252;8.904;2023-01-25T03:45:56;101430.75;;;2.06;87.94
60489;BME280;46331;49.252;8.904;2023-01-25T03:46:41;101429.66;;;2.08;87.97
60489;BME280;46331;49.252;8.904;2023-01-25T03:47:22;101425.38;;;2.07;87.85
60489;BME280;46331;49.252;8.904;2023-01-25T03:48:03;101423.34;;;2.01;87.38
60489;BME280;46331;49.252;8.904;2023-01-25T03:48:44;101432.56;;;2.05;87.43
60489;BME280;46331;49.252;8.904;2023-01-25T03:49:25;101431.84;;;2.03;87.45
60489;BME280;46331;49.252;8.904;2023-01-25T03:50:07;101423.47;;;2.00;87.52
60489;BME280;46331;49.252;8.904;2023-01-25T03:50:53;101423.88;;;2.05;87.51
60489;BME280;46331;49.252;8.904;2023-01-25T03:51:34;101427.88;;;1.99;87.73
60489;BME280;46331;49.252;8.904;2023-01-25T03:52:15;101431.88;;;1.84;86.69
60489;BME280;46331;49.252;8.904;2023-01-25T03:52:56;101428.00;;;1.88;87.32
60489;BME280;46331;49.252;8.904;2023-01-25T03:53:44;101427.72;;;1.91;87.37
60489;BME280;46331;49.252;8.904;2023-01-25T03:54:29;101424.97;;;1.92;87.89
60489;BME280;46331;49.252;8.904;2023-01-25T03:55:10;101431.59;;;1.87;87.71
60489;BME280;46331;49.252;8.904;2023-01-25T03:56:00;101425.66;;;1.85;87.87
60489;BME280;46331;49.252;8.904;2023-01-25T03:56:41;101430.75;;;1.86;88.16
60489;BME280;46331;49.252;8.904;2023-01-25T03:57:29;101427.47;;;1.74;88.06
60489;BME280;46331;49.252;8.904;2023-01-25T03:58:15;101428.00;;;1.78;87.61
60489;BME280;46331;49.252;8.904;2023-01-25T03:58:55;101425.41;;;1.78;87.99